sensor_id;sensor_type;location;lat;lon;timestamp;P1;durP1;ratioP1;P2;durP2;ratioP2
10721;SDS011;5412;59.450;18.124;2022-10-16T00:01:29;19.35;;;11.95;;
10721;SDS011;5412;59.450;18.124;2022-10-16T00:03:56;18.58;;;12.82;;
10721;SDS011;5412;59.450;18.124;2022-10-16T00:06:23;16.02;;;11.73;;
10721;SDS011;5412;59.450;18.124;2022-10-16T00:08:51;14.93;;;10.05;;
10721;SDS011;5412;59.450;18.124;2022-10-16T00:11:18;16.85;;;10.60;;
10721;SDS011;5412;59.450;18.124;2022-10-16T00:13:46;15.80;;;10.30;;
10721;SDS011;5412;59.450;18.124;2022-10-16T00:16:14;19.48;;;10.65;;
10721;SDS011;5412;59.450;18.124;2022-10-16T00:18:41;13.52;;;10.05;;
10721;SDS011;5412;59.450;18.124;2022-10-16T00:21:11;14.68;;;10.43;;
10721;SDS011;5412;59.450;18.124;2022-10-16T00:23:41;15.43;;;9.85;;
10721;SDS011;5412;59.450;18.124;2022-10-16T00:26:09;12.77;;;9.40;;
10721;SDS011;5412;59.450;18.124;2022-10-16T00:28:37;15.93;;;9.73;;
10721;SDS011;5412;59.450;18.124;2022-10-16T00:31:04;14.20;;;9.95;;
10721;SDS011;5412;59.450;18.124;2022-10-16T00:33:32;13.23;;;9.13;;
10721;SDS011;5412;59.450;18.124;2022-10-16T00:35:58;11.68;;;8.45;;
10721;SDS011;5412;59.450;18.124;2022-10-16T00:38:24;11.65;;;8.43;;
10721;SDS011;5412;59.450;18.124;2022-10-16T00:40:50;12.50;;;9.18;;
10721;SDS011;5412;59.450;18.124;2022-10-16T00:46:11;13.93;;;9.05;;
10721;SDS011;5412;59.450;18.124;2022-10-16T00:48:40;12.02;;;9.52;;
10721;SDS011;5412;59.450;18.124;2022-10-16T00:51:10;10.95;;;8.45;;
10721;SDS011;5412;59.450;18.124;2022-10-16T00:53:36;11.73;;;8.82;;
10721;SDS011;5412;59.450;18.124;2022-10-16T00:56:02;11.32;;;7.97;;
10721;SDS011;5412;59.450;18.124;2022-10-16T00:58:28;9.35;;;7.70;;
10721;SDS011;5412;59.450;18.124;2022-10-16T01:00:54;11.00;;;8.40;;
10721;SDS011;5412;59.450;18.124;2022-10-16T01:03:33;10.68;;;8.10;;
10721;SDS011;5412;59.450;18.124;2022-10-16T01:06:13;11.13;;;7.72;;
10721;SDS011;5412;59.450;18.124;2022-10-16T01:13:58;11.27;;;7.88;;
10721;SDS011;5412;59.450;18.124;2022-10-16T01:16:34;12.05;;;8.50;;
10721;SDS011;5412;59.450;18.124;2022-10-16T01:19:20;9.95;;;7.85;;
10721;SDS011;5412;59.450;18.124;2022-10-16T01:22:05;13.60;;;8.13;;
10721;SDS011;5412;59.450;18.124;2022-10-16T01:24:38;13.85;;;7.90;;
10721;SDS011;5412;59.450;18.124;2022-10-16T01:32:14;15.30;;;9.30;;
10721;SDS011;5412;59.450;18.124;2022-10-16T01:35:03;12.85;;;8.93;;
10721;SDS011;5412;59.450;18.124;2022-10-16T01:37:35;16.02;;;10.45;;
10721;SDS011;5412;59.450;18.124;2022-10-16T01:40:07;11.18;;;9.10;;
10721;SDS011;5412;59.450;18.124;2022-10-16T01:42:37;13.73;;;9.27;;
10721;SDS011;5412;59.450;18.124;2022-10-16T01:45:09;14.50;;;9.13;;
10721;SDS011;5412;59.450;18.124;2022-10-16T01:47:38;14.00;;;9.05;;
10721;SDS011;5412;59.450;18.124;2022-10-16T01:50:05;14.63;;;9.98;;
10721;SDS011;5412;59.450;18.124;2022-10-16T01:52:34;13.07;;;8.80;;
10721;SDS011;5412;59.450;18.124;2022-10-16T01:55:04;13.65;;;9.10;;
10721;SDS011;5412;59.450;18.124;2022-10-16T01:57:34;11.05;;;9.32;;
10721;SDS011;5412;59.450;18.124;2022-10-16T02:00:05;12.43;;;9.07;;
10721;SDS011;5412;59.450;18.124;2022-10-16T02:02:33;11.00;;;8.40;;
10721;SDS011;5412;59.450;18.124;2022-10-16T02:07:49;9.52;;;7.63;;
10721;SDS011;5412;59.450;18.124;2022-10-16T02:10:15;12.45;;;8.77;;
10721;SDS011;5412;59.450;18.124;2022-10-16T02:12:42;11.45;;;8.27;;
10721;SDS011;5412;59.450;18.124;2022-10-16T02:15:13;9.35;;;7.63;;
10721;SDS011;5412;59.450;18.124;2022-10-16T02:17:38;10.13;;;8.55;;
10721;SDS011;5412;59.450;18.124;2022-10-16T02:20:04;10.98;;;8.25;;
10721;SDS011;5412;59.450;18.124;2022-10-16T02:22:32;10.65;;;7.90;;
10721;SDS011;5412;59.450;18.124;2022-10-16T02:25:22;11.27;;;7.97;;
10721;SDS011;5412;59.450;18.124;2022-10-16T02:28:06;10.00;;;8.05;;
10721;SDS011;5412;59.450;18.124;2022-10-16T02:30:49;11.45;;;8.00;;
10721;SDS011;5412;59.450;18.124;2022-10-16T02:33:20;9.25;;;7.90;;
10721;SDS011;5412;59.450;18.124;2022-10-16T02:35:48;10.80;;;7.85;;
10721;SDS011;5412;59.450;18.124;2022-10-16T02:38:16;10.82;;;7.75;;
10721;SDS011;5412;59.450;18.124;2022-10-16T02:40:43;10.38;;;8.18;;
10721;SDS011;5412;59.450;18.124;2022-10-16T02:43:09;11.70;;;8.32;;
10721;SDS011;5412;59.450;18.124;2022-10-16T02:45:36;14.68;;;8.63;;
10721;SDS011;5412;59.450;18.124;2022-10-16T02:48:02;10.02;;;8.43;;
10721;SDS011;5412;59.450;18.124;2022-10-16T02:50:27;12.10;;;8.02;;
10721;SDS011;5412;59.450;18.124;2022-10-16T02:52:53;11.65;;;8.27;;
10721;SDS011;5412;59.450;18.124;2022-10-16T02:55:19;11.05;;;7.95;;
10721;SDS011;5412;59.450;18.124;2022-10-16T02:57:44;11.35;;;7.82;;
10721;SDS011;5412;59.450;18.124;2022-10-16T03:00:12;13.20;;;8.00;;
10721;SDS011;5412;59.450;18.124;2022-10-16T03:02:39;11.25;;;8.40;;
10721;SDS011;5412;59.450;18.124;2022-10-16T03:05:05;13.48;;;7.93;;
10721;SDS011;5412;59.450;18.124;2022-10-16T03:07:31;11.48;;;7.82;;
10721;SDS011;5412;59.450;18.124;2022-10-16T03:09:57;12.00;;;7.53;;
10721;SDS011;5412;59.450;18.124;2022-10-16T03:12:25;11.10;;;7.65;;
10721;SDS011;5412;59.450;18.124;2022-10-16T03:14:57;10.32;;;8.07;;
10721;SDS011;5412;59.450;18.124;2022-10-16T03:17:23;10.70;;;7.65;;
10721;SDS011;5412;59.450;18.124;2022-10-16T03:19:49;9.90;;;7.20;;
10721;SDS011;5412;59.450;18.124;2022-10-16T03:22:15;11.15;;;7.72;;
10721;SDS011;5412;59.450;18.124;2022-10-16T03:24:41;10.88;;;6.93;;
10721;SDS011;5412;59.450;18.124;2022-10-16T03:27:07;8.27;;;7.05;;
10721;SDS011;5412;59.450;18.124;2022-10-16T03:29:33;10.98;;;7.50;;
10721;SDS011;5412;59.450;18.124;2022-10-16T03:31:58;13.77;;;7.65;;
10721;SDS011;5412;59.450;18.124;2022-10-16T03:34:25;8.85;;;6.78;;
10721;SDS011;5412;59.450;18.124;2022-10-16T03:36:51;11.15;;;7.57;;
10721;SDS011;5412;59.450;18.124;2022-10-16T03:39:17;8.55;;;7.13;;
10721;SDS011;5412;59.450;18.124;2022-10-16T03:41:44;10.10;;;6.82;;
10721;SDS011;5412;59.450;18.124;2022-10-16T03:44:11;8.90;;;6.90;;
10721;SDS011;5412;59.450;18.124;2022-10-16T03:46:37;11.02;;;7.03;;
10721;SDS011;5412;59.450;18.124;2022-10-16T03:49:02;8.95;;;7.05;;
10721;SDS011;5412;59.450;18.124;2022-10-16T03:51:28;7.55;;;6.32;;
10721;SDS011;5412;59.450;18.124;2022-10-16T03:53:54;8.25;;;6.72;;
10721;SDS011;5412;59.450;18.124;2022-10-16T03:56:20;7.05;;;5.88;;
10721;SDS011;5412;59.450;18.124;2022-10-16T03:58:45;7.93;;;6.65;;
10721;SDS011;5412;59.450;18.124;2022-10-16T04:01:11;11.02;;;7.35;;
10721;SDS011;5412;59.450;18.124;2022-10-16T04:03:37;8.43;;;6.90;;
10721;SDS011;5412;59.450;18.124;2022-10-16T04:06:02;9.95;;;6.82;;
10721;SDS011;5412;59.450;18.124;2022-10-16T04:08:28;7.97;;;6.20;;
10721;SDS011;5412;59.450;18.124;2022-10-16T04:10:54;8.00;;;6.72;;
10721;SDS011;5412;59.450;18.124;2022-10-16T04:13:20;11.32;;;6.95;;
10721;SDS011;5412;59.450;18.124;2022-10-16T04:15:45;9.95;;;7.18;;
10721;SDS011;5412;59.450;18.124;2022-10-16T04:18:11;7.38;;;6.18;;
10721;SDS011;5412;59.450;18.124;2022-10-16T04:20:37;8.30;;;6.45;;
10721;SDS011;5412;59.450;18.124;2022-10-16T04:23:03;7.22;;;5.88;;
10721;SDS011;5412;59.450;18.124;2022-10-16T04:25:28;8.93;;;6.25;;
10721;SDS011;5412;59.450;18.124;2022-10-16T04:27:55;8.13;;;5.90;;
10721;SDS011;5412;59.450;18.124;2022-10-16T04:30:21;6.82;;;5.80;;
10721;SDS011;5412;59.450;18.124;2022-10-16T04:32:48;12.48;;;6.95;;
10721;SDS011;5412;59.450;18.124;2022-10-16T04:35:18;9.73;;;6.32;;
10721;SDS011;5412;59.450;18.124;2022-10-16T04:37:44;7.00;;;5.78;;
10721;SDS011;5412;59.450;18.124;2022-10-16T04:40:10;7.53;;;5.78;;
10721;SDS011;5412;59.450;18.124;2022-10-16T04:42:36;9.70;;;5.65;;
10721;SDS011;5412;59.450;18.124;2022-10-16T04:45:02;9.48;;;5.65;;
10721;SDS011;5412;59.450;18.124;2022-10-16T04:47:29;5.43;;;4.80;;
10721;SDS011;5412;59.450;18.124;2022-10-16T04:49:54;6.20;;;4.90;;
10721;SDS011;5412;59.450;18.124;2022-10-16T04:52:21;8.27;;;5.78;;
10721;SDS011;5412;59.450;18.124;2022-10-16T04:54:49;8.20;;;5.68;;
10721;SDS011;5412;59.450;18.124;2022-10-16T04:57:15;10.68;;;5.82;;
10721;SDS011;5412;59.450;18.124;2022-10-16T04:59:42;7.90;;;5.35;;
10721;SDS011;5412;59.450;18.124;2022-10-16T05:02:07;6.65;;;5.30;;
10721;SDS011;5412;59.450;18.124;2022-10-16T05:04:33;7.13;;;5.45;;
10721;SDS011;5412;59.450;18.124;2022-10-16T05:06:59;6.70;;;5.30;;
10721;SDS011;5412;59.450;18.124;2022-10-16T05:09:24;6.10;;;4.78;;
10721;SDS011;5412;59.450;18.124;2022-10-16T05:11:50;5.65;;;5.10;;
10721;SDS011;5412;59.450;18.124;2022-10-16T05:14:16;6.18;;;4.90;;
10721;SDS011;5412;59.450;18.124;2022-10-16T05:16:42;7.55;;;4.95;;
10721;SDS011;5412;59.450;18.124;2022-10-16T05:19:08;6.38;;;4.97;;
10721;SDS011;5412;59.450;18.124;2022-10-16T05:21:33;7.30;;;5.13;;
10721;SDS011;5412;59.450;18.124;2022-10-16T05:23:59;4.78;;;4.28;;
10721;SDS011;5412;59.450;18.124;2022-10-16T05:26:25;6.95;;;4.95;;
10721;SDS011;5412;59.450;18.124;2022-10-16T05:28:50;8.45;;;4.80;;
10721;SDS011;5412;59.450;18.124;2022-10-16T05:31:16;5.75;;;4.43;;
10721;SDS011;5412;59.450;18.124;2022-10-16T05:33:42;9.93;;;5.03;;
10721;SDS011;5412;59.450;18.124;2022-10-16T05:36:09;6.18;;;4.80;;
10721;SDS011;5412;59.450;18.124;2022-10-16T05:38:35;8.10;;;4.85;;
10721;SDS011;5412;59.450;18.124;2022-10-16T05:41:02;8.77;;;5.22;;
10721;SDS011;5412;59.450;18.124;2022-10-16T05:43:29;4.97;;;4.47;;
10721;SDS011;5412;59.450;18.124;2022-10-16T05:45:56;9.07;;;4.80;;
10721;SDS011;5412;59.450;18.124;2022-10-16T05:48:24;6.25;;;5.30;;
10721;SDS011;5412;59.450;18.124;2022-10-16T05:50:57;8.35;;;5.30;;
10721;SDS011;5412;59.450;18.124;2022-10-16T05:53:23;7.30;;;5.22;;
10721;SDS011;5412;59.450;18.124;2022-10-16T05:55:57;7.38;;;5.43;;
10721;SDS011;5412;59.450;18.124;2022-10-16T05:58:23;6.60;;;5.43;;
10721;SDS011;5412;59.450;18.124;2022-10-16T06:00:56;8.65;;;6.05;;
10721;SDS011;5412;59.450;18.124;2022-10-16T06:03:22;8.07;;;5.70;;
10721;SDS011;5412;59.450;18.124;2022-10-16T06:05:48;8.68;;;5.68;;
10721;SDS011;5412;59.450;18.124;2022-10-16T06:08:14;8.60;;;5.72;;
10721;SDS011;5412;59.450;18.124;2022-10-16T06:10:40;7.75;;;5.20;;
10721;SDS011;5412;59.450;18.124;2022-10-16T06:13:06;6.97;;;5.85;;
10721;SDS011;5412;59.450;18.124;2022-10-16T06:15:32;11.90;;;6.47;;
10721;SDS011;5412;59.450;18.124;2022-10-16T06:17:57;8.32;;;5.95;;
10721;SDS011;5412;59.450;18.124;2022-10-16T06:20:23;8.25;;;6.88;;
10721;SDS011;5412;59.450;18.124;2022-10-16T06:22:49;9.43;;;6.32;;
10721;SDS011;5412;59.450;18.124;2022-10-16T06:25:14;14.55;;;6.25;;
10721;SDS011;5412;59.450;18.124;2022-10-16T06:27:40;8.73;;;6.50;;
10721;SDS011;5412;59.450;18.124;2022-10-16T06:30:06;12.05;;;7.10;;
10721;SDS011;5412;59.450;18.124;2022-10-16T06:32:32;11.18;;;6.63;;
10721;SDS011;5412;59.450;18.124;2022-10-16T06:34:58;23.15;;;15.73;;
10721;SDS011;5412;59.450;18.124;2022-10-16T06:37:24;10.23;;;7.22;;
10721;SDS011;5412;59.450;18.124;2022-10-16T06:39:50;9.60;;;6.80;;
10721;SDS011;5412;59.450;18.124;2022-10-16T06:42:18;10.45;;;7.70;;
10721;SDS011;5412;59.450;18.124;2022-10-16T06:44:44;11.95;;;7.68;;
10721;SDS011;5412;59.450;18.124;2022-10-16T06:47:10;10.35;;;7.30;;
10721;SDS011;5412;59.450;18.124;2022-10-16T06:49:36;13.82;;;7.82;;
10721;SDS011;5412;59.450;18.124;2022-10-16T06:52:02;12.05;;;7.97;;
10721;SDS011;5412;59.450;18.124;2022-10-16T06:54:28;10.35;;;8.23;;
10721;SDS011;5412;59.450;18.124;2022-10-16T06:56:54;11.10;;;8.75;;
10721;SDS011;5412;59.450;18.124;2022-10-16T06:59:20;11.15;;;8.23;;
10721;SDS011;5412;59.450;18.124;2022-10-16T07:01:46;10.02;;;7.55;;
10721;SDS011;5412;59.450;18.124;2022-10-16T07:04:12;10.40;;;8.15;;
10721;SDS011;5412;59.450;18.124;2022-10-16T07:06:38;10.60;;;7.70;;
10721;SDS011;5412;59.450;18.124;2022-10-16T07:09:05;10.48;;;7.78;;
10721;SDS011;5412;59.450;18.124;2022-10-16T07:11:33;10.13;;;7.60;;
10721;SDS011;5412;59.450;18.124;2022-10-16T07:14:00;10.95;;;7.20;;
10721;SDS011;5412;59.450;18.124;2022-10-16T07:16:27;13.65;;;8.70;;
10721;SDS011;5412;59.450;18.124;2022-10-16T07:18:54;10.07;;;7.13;;
10721;SDS011;5412;59.450;18.124;2022-10-16T07:21:23;11.07;;;8.60;;
10721;SDS011;5412;59.450;18.124;2022-10-16T07:23:51;10.68;;;7.70;;
10721;SDS011;5412;59.450;18.124;2022-10-16T07:26:22;8.25;;;7.05;;
10721;SDS011;5412;59.450;18.124;2022-10-16T07:28:49;10.40;;;7.60;;
10721;SDS011;5412;59.450;18.124;2022-10-16T07:31:16;11.15;;;7.47;;
10721;SDS011;5412;59.450;18.124;2022-10-16T07:33:43;10.75;;;7.53;;
10721;SDS011;5412;59.450;18.124;2022-10-16T07:36:10;8.13;;;6.80;;
10721;SDS011;5412;59.450;18.124;2022-10-16T07:38:37;12.07;;;7.28;;
10721;SDS011;5412;59.450;18.124;2022-10-16T07:41:04;9.82;;;7.38;;
10721;SDS011;5412;59.450;18.124;2022-10-16T07:43:31;11.35;;;7.05;;
10721;SDS011;5412;59.450;18.124;2022-10-16T07:45:58;10.20;;;6.40;;
10721;SDS011;5412;59.450;18.124;2022-10-16T07:48:26;8.68;;;6.38;;
10721;SDS011;5412;59.450;18.124;2022-10-16T07:50:56;7.82;;;5.93;;
10721;SDS011;5412;59.450;18.124;2022-10-16T07:53:26;8.00;;;6.43;;
10721;SDS011;5412;59.450;18.124;2022-10-16T07:55:56;8.88;;;6.10;;
10721;SDS011;5412;59.450;18.124;2022-10-16T07:58:27;8.80;;;6.43;;
10721;SDS011;5412;59.450;18.124;2022-10-16T08:00:53;7.60;;;6.22;;
10721;SDS011;5412;59.450;18.124;2022-10-16T08:03:19;8.98;;;5.95;;
10721;SDS011;5412;59.450;18.124;2022-10-16T08:05:45;6.65;;;5.43;;
10721;SDS011;5412;59.450;18.124;2022-10-16T08:08:14;7.25;;;5.47;;
10721;SDS011;5412;59.450;18.124;2022-10-16T08:10:41;7.28;;;5.40;;
10721;SDS011;5412;59.450;18.124;2022-10-16T08:13:06;7.10;;;4.93;;
10721;SDS011;5412;59.450;18.124;2022-10-16T08:15:32;4.85;;;4.20;;
10721;SDS011;5412;59.450;18.124;2022-10-16T08:18:02;6.38;;;4.68;;
10721;SDS011;5412;59.450;18.124;2022-10-16T08:20:29;5.72;;;4.28;;
10721;SDS011;5412;59.450;18.124;2022-10-16T08:22:56;6.15;;;4.50;;
10721;SDS011;5412;59.450;18.124;2022-10-16T08:25:22;5.45;;;3.97;;
10721;SDS011;5412;59.450;18.124;2022-10-16T08:27:48;6.30;;;4.40;;
10721;SDS011;5412;59.450;18.124;2022-10-16T08:30:15;4.13;;;3.72;;
10721;SDS011;5412;59.450;18.124;2022-10-16T08:32:41;4.78;;;4.07;;
10721;SDS011;5412;59.450;18.124;2022-10-16T08:35:10;6.80;;;4.20;;
10721;SDS011;5412;59.450;18.124;2022-10-16T08:37:37;5.70;;;3.63;;
10721;SDS011;5412;59.450;18.124;2022-10-16T08:40:04;5.72;;;3.88;;
10721;SDS011;5412;59.450;18.124;2022-10-16T08:50:46;5.65;;;3.13;;
10721;SDS011;5412;59.450;18.124;2022-10-16T08:53:19;7.47;;;3.53;;
10721;SDS011;5412;59.450;18.124;2022-10-16T08:55:50;7.40;;;3.58;;
10721;SDS011;5412;59.450;18.124;2022-10-16T08:58:18;3.33;;;3.03;;
10721;SDS011;5412;59.450;18.124;2022-10-16T09:00:46;6.00;;;3.33;;
10721;SDS011;5412;59.450;18.124;2022-10-16T09:09:27;3.92;;;3.30;;
10721;SDS011;5412;59.450;18.124;2022-10-16T09:12:17;6.28;;;3.60;;
10721;SDS011;5412;59.450;18.124;2022-10-16T09:20:03;5.00;;;3.10;;
10721;SDS011;5412;59.450;18.124;2022-10-16T09:22:51;4.72;;;2.65;;
10721;SDS011;5412;59.450;18.124;2022-10-16T09:25:40;3.05;;;2.47;;
10721;SDS011;5412;59.450;18.124;2022-10-16T09:28:08;4.72;;;3.08;;
10721;SDS011;5412;59.450;18.124;2022-10-16T09:30:35;7.47;;;2.97;;
10721;SDS011;5412;59.450;18.124;2022-10-16T09:33:02;5.95;;;2.72;;
10721;SDS011;5412;59.450;18.124;2022-10-16T09:35:39;4.03;;;2.35;;
10721;SDS011;5412;59.450;18.124;2022-10-16T09:38:09;3.85;;;2.72;;
10721;SDS011;5412;59.450;18.124;2022-10-16T09:40:50;4.88;;;3.38;;
10721;SDS011;5412;59.450;18.124;2022-10-16T09:43:23;5.90;;;2.72;;
10721;SDS011;5412;59.450;18.124;2022-10-16T09:45:54;2.80;;;2.35;;
10721;SDS011;5412;59.450;18.124;2022-10-16T09:48:21;4.03;;;2.47;;
10721;SDS011;5412;59.450;18.124;2022-10-16T09:51:01;6.20;;;2.20;;
10721;SDS011;5412;59.450;18.124;2022-10-16T09:53:37;3.45;;;2.42;;
10721;SDS011;5412;59.450;18.124;2022-10-16T09:56:11;4.82;;;2.33;;
10721;SDS011;5412;59.450;18.124;2022-10-16T09:58:51;3.42;;;2.60;;
10721;SDS011;5412;59.450;18.124;2022-10-16T10:01:18;5.70;;;2.65;;
10721;SDS011;5412;59.450;18.124;2022-10-16T10:03:44;5.35;;;2.38;;
10721;SDS011;5412;59.450;18.124;2022-10-16T10:06:16;4.00;;;2.42;;
10721;SDS011;5412;59.450;18.124;2022-10-16T10:08:55;7.75;;;5.35;;
10721;SDS011;5412;59.450;18.124;2022-10-16T10:14:10;4.05;;;2.50;;
10721;SDS011;5412;59.450;18.124;2022-10-16T10:16:46;4.47;;;2.22;;
10721;SDS011;5412;59.450;18.124;2022-10-16T10:19:14;4.13;;;2.47;;
10721;SDS011;5412;59.450;18.124;2022-10-16T10:21:41;2.88;;;2.20;;
10721;SDS011;5412;59.450;18.124;2022-10-16T10:24:25;6.82;;;2.22;;
10721;SDS011;5412;59.450;18.124;2022-10-16T10:26:54;3.22;;;2.13;;
10721;SDS011;5412;59.450;18.124;2022-10-16T10:35:01;3.85;;;2.00;;
10721;SDS011;5412;59.450;18.124;2022-10-16T10:37:51;3.25;;;2.30;;
10721;SDS011;5412;59.450;18.124;2022-10-16T10:46:06;5.55;;;2.83;;
10721;SDS011;5412;59.450;18.124;2022-10-16T10:49:03;3.97;;;2.53;;
10721;SDS011;5412;59.450;18.124;2022-10-16T10:54:23;6.22;;;2.20;;
10721;SDS011;5412;59.450;18.124;2022-10-16T10:57:19;5.88;;;2.35;;
10721;SDS011;5412;59.450;18.124;2022-10-16T11:07:34;8.35;;;2.70;;
10721;SDS011;5412;59.450;18.124;2022-10-16T11:10:11;3.88;;;2.10;;
10721;SDS011;5412;59.450;18.124;2022-10-16T11:12:44;4.93;;;2.45;;
10721;SDS011;5412;59.450;18.124;2022-10-16T11:15:25;3.85;;;1.98;;
10721;SDS011;5412;59.450;18.124;2022-10-16T11:20:23;4.70;;;2.30;;
10721;SDS011;5412;59.450;18.124;2022-10-16T11:26:02;7.38;;;2.45;;
10721;SDS011;5412;59.450;18.124;2022-10-16T11:28:37;3.88;;;2.50;;
10721;SDS011;5412;59.450;18.124;2022-10-16T11:31:08;4.30;;;2.50;;
10721;SDS011;5412;59.450;18.124;2022-10-16T11:33:42;4.38;;;2.15;;
10721;SDS011;5412;59.450;18.124;2022-10-16T11:36:15;3.90;;;2.08;;
10721;SDS011;5412;59.450;18.124;2022-10-16T11:38:57;8.50;;;2.50;;
10721;SDS011;5412;59.450;18.124;2022-10-16T11:44:34;5.25;;;2.25;;
10721;SDS011;5412;59.450;18.124;2022-10-16T11:50:01;9.27;;;2.28;;
10721;SDS011;5412;59.450;18.124;2022-10-16T11:55:21;4.85;;;2.25;;
10721;SDS011;5412;59.450;18.124;2022-10-16T11:57:52;3.85;;;2.15;;
10721;SDS011;5412;59.450;18.124;2022-10-16T12:00:31;5.18;;;2.20;;
10721;SDS011;5412;59.450;18.124;2022-10-16T12:08:34;5.95;;;2.25;;
10721;SDS011;5412;59.450;18.124;2022-10-16T12:11:07;4.65;;;2.17;;
10721;SDS011;5412;59.450;18.124;2022-10-16T12:16:38;5.15;;;2.03;;
10721;SDS011;5412;59.450;18.124;2022-10-16T12:19:16;3.47;;;1.95;;
10721;SDS011;5412;59.450;18.124;2022-10-16T12:21:43;4.57;;;2.15;;
10721;SDS011;5412;59.450;18.124;2022-10-16T12:24:28;6.97;;;2.20;;
10721;SDS011;5412;59.450;18.124;2022-10-16T12:27:29;7.72;;;2.58;;
10721;SDS011;5412;59.450;18.124;2022-10-16T12:30:00;3.95;;;1.77;;
10721;SDS011;5412;59.450;18.124;2022-10-16T12:35:04;3.33;;;1.92;;
10721;SDS011;5412;59.450;18.124;2022-10-16T12:37:41;4.30;;;2.03;;
10721;SDS011;5412;59.450;18.124;2022-10-16T12:42:48;6.00;;;2.17;;
10721;SDS011;5412;59.450;18.124;2022-10-16T12:45:24;5.05;;;2.78;;
10721;SDS011;5412;59.450;18.124;2022-10-16T12:47:53;6.45;;;2.60;;
10721;SDS011;5412;59.450;18.124;2022-10-16T12:50:36;5.72;;;2.67;;
10721;SDS011;5412;59.450;18.124;2022-10-16T12:53:22;6.35;;;2.53;;
10721;SDS011;5412;59.450;18.124;2022-10-16T13:10:24;4.50;;;3.03;;
10721;SDS011;5412;59.450;18.124;2022-10-16T13:15:52;3.40;;;2.17;;
10721;SDS011;5412;59.450;18.124;2022-10-16T13:21:38;4.63;;;2.25;;
10721;SDS011;5412;59.450;18.124;2022-10-16T13:29:13;5.68;;;2.30;;
10721;SDS011;5412;59.450;18.124;2022-10-16T13:31:39;2.97;;;2.28;;
10721;SDS011;5412;59.450;18.124;2022-10-16T13:34:05;4.07;;;1.80;;
10721;SDS011;5412;59.450;18.124;2022-10-16T13:36:45;3.00;;;1.92;;
10721;SDS011;5412;59.450;18.124;2022-10-16T13:39:21;4.07;;;2.30;;
10721;SDS011;5412;59.450;18.124;2022-10-16T13:44:40;2.47;;;1.90;;
10721;SDS011;5412;59.450;18.124;2022-10-16T13:47:27;6.20;;;1.92;;
10721;SDS011;5412;59.450;18.124;2022-10-16T13:50:05;5.18;;;1.90;;
10721;SDS011;5412;59.450;18.124;2022-10-16T13:52:36;5.50;;;1.75;;
10721;SDS011;5412;59.450;18.124;2022-10-16T13:55:03;5.70;;;1.90;;
10721;SDS011;5412;59.450;18.124;2022-10-16T13:57:39;3.03;;;2.10;;
10721;SDS011;5412;59.450;18.124;2022-10-16T14:00:25;3.97;;;1.98;;
10721;SDS011;5412;59.450;18.124;2022-10-16T14:03:05;2.85;;;1.95;;
10721;SDS011;5412;59.450;18.124;2022-10-16T14:05:40;3.88;;;1.90;;
10721;SDS011;5412;59.450;18.124;2022-10-16T14:08:13;3.95;;;1.60;;
10721;SDS011;5412;59.450;18.124;2022-10-16T14:10:38;3.20;;;1.95;;
10721;SDS011;5412;59.450;18.124;2022-10-16T14:13:05;7.32;;;1.80;;
10721;SDS011;5412;59.450;18.124;2022-10-16T14:15:32;4.43;;;2.03;;
10721;SDS011;5412;59.450;18.124;2022-10-16T14:18:00;2.83;;;1.60;;
10721;SDS011;5412;59.450;18.124;2022-10-16T14:20:27;3.75;;;1.40;;
10721;SDS011;5412;59.450;18.124;2022-10-16T14:23:30;1.55;;;1.23;;
10721;SDS011;5412;59.450;18.124;2022-10-16T14:25:53;2.72;;;1.25;;
10721;SDS011;5412;59.450;18.124;2022-10-16T14:28:22;2.53;;;1.25;;
10721;SDS011;5412;59.450;18.124;2022-10-16T14:30:49;1.25;;;1.02;;
10721;SDS011;5412;59.450;18.124;2022-10-16T14:33:39;2.22;;;1.40;;
10721;SDS011;5412;59.450;18.124;2022-10-16T14:36:05;2.72;;;1.70;;
10721;SDS011;5412;59.450;18.124;2022-10-16T14:38:31;3.17;;;1.60;;
10721;SDS011;5412;59.450;18.124;2022-10-16T14:40:58;4.88;;;1.98;;
10721;SDS011;5412;59.450;18.124;2022-10-16T14:45:58;3.35;;;1.40;;
10721;SDS011;5412;59.450;18.124;2022-10-16T14:48:26;2.90;;;1.40;;
10721;SDS011;5412;59.450;18.124;2022-10-16T14:50:52;3.40;;;1.85;;
10721;SDS011;5412;59.450;18.124;2022-10-16T14:53:18;6.45;;;1.98;;
10721;SDS011;5412;59.450;18.124;2022-10-16T14:55:43;4.82;;;1.80;;
10721;SDS011;5412;59.450;18.124;2022-10-16T14:58:13;7.55;;;2.40;;
10721;SDS011;5412;59.450;18.124;2022-10-16T15:00:41;4.95;;;1.98;;
10721;SDS011;5412;59.450;18.124;2022-10-16T15:03:07;5.72;;;2.30;;
10721;SDS011;5412;59.450;18.124;2022-10-16T15:05:32;7.90;;;1.83;;
10721;SDS011;5412;59.450;18.124;2022-10-16T15:07:58;8.70;;;2.90;;
10721;SDS011;5412;59.450;18.124;2022-10-16T15:10:25;7.03;;;1.95;;
10721;SDS011;5412;59.450;18.124;2022-10-16T15:12:53;2.85;;;1.80;;
10721;SDS011;5412;59.450;18.124;2022-10-16T15:17:48;4.65;;;2.40;;
10721;SDS011;5412;59.450;18.124;2022-10-16T15:20:17;4.40;;;2.03;;
10721;SDS011;5412;59.450;18.124;2022-10-16T15:22:44;3.80;;;2.25;;
10721;SDS011;5412;59.450;18.124;2022-10-16T15:27:50;4.85;;;2.00;;
10721;SDS011;5412;59.450;18.124;2022-10-16T15:30:16;4.35;;;2.28;;
10721;SDS011;5412;59.450;18.124;2022-10-16T15:32:42;10.45;;;1.55;;
10721;SDS011;5412;59.450;18.124;2022-10-16T15:35:10;5.10;;;1.23;;
10721;SDS011;5412;59.450;18.124;2022-10-16T15:37:36;4.10;;;1.23;;
10721;SDS011;5412;59.450;18.124;2022-10-16T15:40:02;7.88;;;1.80;;
10721;SDS011;5412;59.450;18.124;2022-10-16T15:42:28;3.50;;;0.93;;
10721;SDS011;5412;59.450;18.124;2022-10-16T15:44:54;3.83;;;1.50;;
10721;SDS011;5412;59.450;18.124;2022-10-16T15:47:19;1.50;;;1.02;;
10721;SDS011;5412;59.450;18.124;2022-10-16T15:49:45;2.50;;;1.13;;
10721;SDS011;5412;59.450;18.124;2022-10-16T15:52:11;1.70;;;0.93;;
10721;SDS011;5412;59.450;18.124;2022-10-16T15:54:37;2.47;;;1.13;;
10721;SDS011;5412;59.450;18.124;2022-10-16T15:57:03;2.58;;;1.40;;
10721;SDS011;5412;59.450;18.124;2022-10-16T15:59:28;2.65;;;1.02;;
10721;SDS011;5412;59.450;18.124;2022-10-16T16:01:55;2.90;;;1.25;;
10721;SDS011;5412;59.450;18.124;2022-10-16T16:04:21;4.00;;;1.00;;
10721;SDS011;5412;59.450;18.124;2022-10-16T16:06:46;2.40;;;1.13;;
10721;SDS011;5412;59.450;18.124;2022-10-16T16:09:13;6.03;;;1.13;;
10721;SDS011;5412;59.450;18.124;2022-10-16T16:11:39;5.70;;;1.38;;
10721;SDS011;5412;59.450;18.124;2022-10-16T16:14:05;2.38;;;1.30;;
10721;SDS011;5412;59.450;18.124;2022-10-16T16:16:31;7.03;;;1.50;;
10721;SDS011;5412;59.450;18.124;2022-10-16T16:19:03;4.63;;;0.98;;
10721;SDS011;5412;59.450;18.124;2022-10-16T16:21:31;3.13;;;1.40;;
10721;SDS011;5412;59.450;18.124;2022-10-16T16:23:57;3.15;;;1.00;;
10721;SDS011;5412;59.450;18.124;2022-10-16T16:26:28;2.67;;;1.20;;
10721;SDS011;5412;59.450;18.124;2022-10-16T16:28:59;4.38;;;1.50;;
10721;SDS011;5412;59.450;18.124;2022-10-16T16:31:26;3.40;;;1.05;;
10721;SDS011;5412;59.450;18.124;2022-10-16T16:33:53;4.78;;;1.55;;
10721;SDS011;5412;59.450;18.124;2022-10-16T16:36:19;2.35;;;0.95;;
10721;SDS011;5412;59.450;18.124;2022-10-16T16:38:45;5.10;;;1.42;;
10721;SDS011;5412;59.450;18.124;2022-10-16T16:41:18;3.08;;;1.20;;
10721;SDS011;5412;59.450;18.124;2022-10-16T16:43:46;4.07;;;1.15;;
10721;SDS011;5412;59.450;18.124;2022-10-16T16:46:12;2.40;;;1.00;;
10721;SDS011;5412;59.450;18.124;2022-10-16T16:48:40;2.03;;;0.88;;
10721;SDS011;5412;59.450;18.124;2022-10-16T16:51:06;4.85;;;1.13;;
10721;SDS011;5412;59.450;18.124;2022-10-16T16:53:34;1.13;;;0.90;;
10721;SDS011;5412;59.450;18.124;2022-10-16T16:56:01;2.22;;;1.00;;
10721;SDS011;5412;59.450;18.124;2022-10-16T16:58:28;1.23;;;0.80;;
10721;SDS011;5412;59.450;18.124;2022-10-16T17:00:54;4.50;;;0.90;;